Time;durP1;ratioP1;P1;durP2;ratioP2;P2;SDS_P1;SDS_P2;PMS_P1;PMS_P2;Temp;Humidity;BMP_temperature;BMP_pressure;BME280_temperature;BME280_humidity;BME280_pressure;Samples;Min_cycle;Max_cycle;Signal;HPM_P1;HPM_P2
2022/03/23 00:02:24;;;;;;;2.20;1.30;;;6.40;64.70;;;;;;5014134;28;20456;-43
2022/03/23 00:04:51;;;;;;;1.60;1.50;;;6.40;63.70;;;;;;5014214;28;20420;-43
2022/03/23 00:07:20;;;;;;;1.47;1.30;;;6.40;63.80;;;;;;5014051;28;20570;-44
2022/03/23 00:09:49;;;;;;;1.87;1.67;;;6.50;63.50;;;;;;5013465;28;20475;-45
2022/03/23 00:12:16;;;;;;;1.60;1.50;;;6.50;64.40;;;;;;5014073;28;20884;-43
2022/03/23 00:14:43;;;;;;;1.40;1.30;;;6.40;63.40;;;;;;5014140;28;20883;-43
2022/03/23 00:17:10;;;;;;;1.80;1.20;;;6.20;64.50;;;;;;5013941;28;20445;-43
2022/03/23 00:19:36;;;;;;;1.43;1.33;;;6.00;64.90;;;;;;5013671;28;20531;-43
2022/03/23 00:22:04;;;;;;;4.30;3.23;;;5.50;67.30;;;;;;5013753;28;20892;-43
2022/03/23 00:24:31;;;;;;;1.70;1.60;;;5.70;68.30;;;;;;5013619;28;20447;-43
2022/03/23 00:27:00;;;;;;;1.57;1.37;;;5.60;68.60;;;;;;5013603;28;20486;-44
2022/03/23 00:29:27;;;;;;;1.73;1.63;;;5.60;68.30;;;;;;5013228;28;20487;-43
2022/03/23 00:31:53;;;;;;;2.00;1.33;;;5.50;68.00;;;;;;5013670;28;20526;-43
2022/03/23 00:34:20;;;;;;;1.20;1.10;;;5.30;67.00;;;;;;5013476;28;20486;-46
2022/03/23 00:36:47;;;;;;;2.83;2.07;;;5.50;66.90;;;;;;5013446;28;20474;-44
2022/03/23 00:39:14;;;;;;;1.57;1.20;;;5.70;66.00;;;;;;5013061;28;20467;-43
2022/03/23 00:41:41;;;;;;;1.40;1.30;;;5.80;65.40;;;;;;5013373;28;20546;-44
2022/03/23 00:44:10;;;;;;;1.20;1.10;;;6.00;65.60;;;;;;5013182;28;20960;-44
2022/03/23 00:46:37;;;;;;;2.07;1.60;;;6.10;64.40;;;;;;5013488;28;20470;-43
2022/03/23 00:49:04;;;;;;;2.00;1.20;;;6.10;64.10;;;;;;5013083;28;20533;-44
2022/03/23 00:51:31;;;;;;;1.40;1.30;;;6.30;63.20;;;;;;5013321;28;20486;-43
2022/03/23 00:53:58;;;;;;;1.53;1.40;;;6.30;62.70;;;;;;5013069;28;20522;-45
2022/03/23 00:56:24;;;;;;;1.67;1.30;;;6.30;62.50;;;;;;5013476;28;20826;-44
2022/03/23 00:58:51;;;;;;;1.47;1.37;;;6.30;62.10;;;;;;5012708;28;20482;-43
2022/03/23 01:01:20;;;;;;;1.70;1.37;;;6.30;62.40;;;;;;5012708;28;20482;-45
2022/03/23 01:03:46;;;;;;;1.80;1.60;;;6.40;62.80;;;;;;5012929;28;20885;-45
2022/03/23 01:06:13;;;;;;;1.10;1.00;;;6.30;64.10;;;;;;5012867;28;20467;-43
2022/03/23 01:08:40;;;;;;;1.57;1.40;;;6.00;63.30;;;;;;5012678;28;21043;-44
2022/03/23 01:11:07;;;;;;;1.57;1.47;;;5.80;65.00;;;;;;5114062;22;20528;-45
2022/03/23 01:13:34;;;;;;;1.60;1.50;;;6.00;65.10;;;;;;5072551;28;20491;-44
2022/03/23 01:16:01;;;;;;;1.70;1.60;;;5.90;65.10;;;;;;5072500;28;20484;-51
2022/03/23 01:18:29;;;;;;;1.90;1.53;;;5.80;65.00;;;;;;5072292;28;20524;-46
2022/03/23 01:20:56;;;;;;;1.60;1.50;;;5.70;65.90;;;;;;5072217;28;20518;-45
2022/03/23 01:23:23;;;;;;;3.10;1.30;;;5.60;66.00;;;;;;5072371;28;20476;-44
2022/03/23 01:25:50;;;;;;;1.90;1.60;;;5.60;66.90;;;;;;5072152;28;20480;-46
2022/03/23 01:28:17;;;;;;;1.27;1.17;;;5.70;67.20;;;;;;5071902;28;20519;-45
2022/03/23 01:30:44;;;;;;;1.10;1.00;;;5.60;67.00;;;;;;5071915;28;20980;-44
2022/03/23 01:33:11;;;;;;;1.40;1.30;;;5.50;67.60;;;;;;5071976;28;20956;-44
2022/03/23 01:35:40;;;;;;;1.30;1.10;;;5.50;67.40;;;;;;5071636;28;20847;-48
2022/03/23 01:38:07;;;;;;;1.47;1.23;;;5.60;68.10;;;;;;5070721;28;20472;-47
2022/03/23 01:40:33;;;;;;;1.50;1.30;;;5.70;66.90;;;;;;5071155;28;20495;-44
2022/03/23 01:43:00;;;;;;;1.37;0.80;;;5.90;65.00;;;;;;5071901;28;20479;-44
2022/03/23 01:45:27;;;;;;;1.10;0.90;;;5.50;65.20;;;;;;5071812;28;20476;-44
2022/03/23 01:47:54;;;;;;;1.47;1.30;;;5.50;67.80;;;;;;5071586;28;20508;-44
2022/03/23 01:50:21;;;;;;;1.80;1.63;;;5.50;66.90;;;;;;5071532;28;20556;-49
2022/03/23 01:52:49;;;;;;;1.60;1.47;;;5.60;65.30;;;;;;5071520;28;20527;-46
2022/03/23 01:55:17;;;;;;;1.03;0.93;;;5.60;65.00;;;;;;5071800;28;20891;-44
2022/03/23 01:57:47;;;;;;;1.13;1.03;;;5.60;64.90;;;;;;5071443;28;20925;-44
2022/03/23 02:00:16;;;;;;;1.53;1.33;;;5.60;66.90;;;;;;5071075;28;20909;-45
2022/03/23 02:02:44;;;;;;;1.57;1.03;;;5.60;66.00;;;;;;5071798;28;20445;-44
2022/03/23 02:05:12;;;;;;;1.60;1.37;;;5.40;65.80;;;;;;5071681;28;20479;-45
2022/03/23 02:07:39;;;;;;;1.70;1.20;;;5.10;66.80;;;;;;5071296;28;20563;-46
2022/03/23 02:10:08;;;;;;;1.30;1.10;;;5.10;68.50;;;;;;5071334;28;20472;-49
2022/03/23 02:12:38;;;;;;;1.20;1.10;;;5.10;68.90;;;;;;5071601;28;20472;-44
2022/03/23 02:15:12;;;;;;;1.60;1.43;;;5.20;68.10;;;;;;5071427;28;20444;-44
2022/03/23 02:17:39;;;;;;;1.00;1.00;;;5.30;66.90;;;;;;5071327;28;21046;-44
2022/03/23 02:20:08;;;;;;;1.90;1.30;;;5.10;66.70;;;;;;5071010;28;20499;-46
2022/03/23 02:22:36;;;;;;;1.60;1.50;;;5.30;67.20;;;;;;5071408;28;20798;-44
2022/03/23 02:25:04;;;;;;;1.30;1.20;;;5.40;67.60;;;;;;5071637;28;20472;-44
2022/03/23 02:27:32;;;;;;;1.17;1.07;;;5.30;66.80;;;;;;5071325;28;20472;-44
2022/03/23 02:30:00;;;;;;;3.20;1.33;;;5.10;68.00;;;;;;5071044;28;20546;-44
2022/03/23 02:32:26;;;;;;;1.30;1.20;;;4.70;68.70;;;;;;5071360;28;21003;-45
2022/03/23 02:34:54;;;;;;;1.43;1.10;;;4.50;69.30;;;;;;5071125;28;20476;-44
2022/03/23 02:37:20;;;;;;;2.07;1.60;;;4.30;71.20;;;;;;5070861;28;20456;-45
2022/03/23 02:39:49;;;;;;;2.40;1.40;;;4.30;72.10;;;;;;5071002;28;20547;-44
2022/03/23 02:42:16;;;;;;;1.87;1.57;;;4.10;72.40;;;;;;5071275;28;20479;-44
2022/03/23 02:44:42;;;;;;;3.10;1.30;;;4.40;72.60;;;;;;5071452;28;20475;-49
2022/03/23 02:47:09;;;;;;;1.63;1.03;;;4.50;70.90;;;;;;5073176;28;20472;-44
2022/03/23 02:49:37;;;;;;;1.77;1.40;;;4.70;68.70;;;;;;5074807;28;20480;-44
2022/03/23 02:52:04;;;;;;;1.60;1.37;;;4.90;68.80;;;;;;5074936;28;20876;-44
2022/03/23 03:03:34;;;;;;;3.63;1.63;;;4.30;71.00;;;;;;5032591;28;20597;-46
2022/03/23 03:06:03;;;;;;;1.53;1.40;;;4.20;70.90;;;;;;5064747;28;20491;-45
2022/03/23 03:08:46;;;;;;;1.20;1.10;;;4.40;70.30;;;;;;5074892;28;20490;-47
2022/03/23 03:11:13;;;;;;;3.63;1.20;;;4.60;69.40;;;;;;5074573;28;20479;-44
2022/03/23 03:13:42;;;;;;;1.43;1.03;;;4.70;70.60;;;;;;5074790;28;20459;-44
2022/03/23 03:16:10;;;;;;;1.10;0.97;;;4.70;69.70;;;;;;5074541;28;20487;-44
2022/03/23 03:18:37;;;;;;;1.97;0.97;;;4.50;70.40;;;;;;5074895;28;20477;-48
2022/03/23 03:21:06;;;;;;;2.20;1.00;;;4.30;70.90;;;;;;5074233;28;21030;-44
2022/03/23 03:23:33;;;;;;;1.07;1.00;;;4.20;69.90;;;;;;5074853;28;20443;-46
2022/03/23 03:26:01;;;;;;;1.13;1.03;;;4.20;69.80;;;;;;5074636;28;20872;-44
2022/03/23 03:28:29;;;;;;;1.47;1.10;;;4.30;69.90;;;;;;5074276;28;20461;-44
2022/03/23 03:30:58;;;;;;;2.30;1.50;;;4.40;70.10;;;;;;5074405;28;20503;-46
2022/03/23 03:33:25;;;;;;;1.20;1.10;;;4.40;70.50;;;;;;5074360;28;20450;-44
2022/03/23 03:35:51;;;;;;;1.63;1.00;;;4.50;71.00;;;;;;5074368;28;20539;-44
2022/03/23 03:38:19;;;;;;;1.40;1.30;;;4.60;70.30;;;;;;5073950;28;20478;-44
2022/03/23 03:40:46;;;;;;;1.43;1.33;;;4.70;69.20;;;;;;5073741;28;20498;-46
2022/03/23 03:43:15;;;;;;;1.17;1.07;;;4.70;68.80;;;;;;5074257;28;20447;-44
2022/03/23 03:45:43;;;;;;;1.20;1.10;;;4.80;68.00;;;;;;5074069;28;20440;-47
2022/03/23 03:48:11;;;;;;;1.10;0.90;;;4.80;67.80;;;;;;5074083;28;20566;-46
2022/03/23 03:50:39;;;;;;;1.00;0.93;;;4.70;68.70;;;;;;5073802;28;20534;-45
2022/03/23 03:53:07;;;;;;;1.37;1.27;;;4.60;69.40;;;;;;5074043;28;20812;-44
2022/03/23 03:55:34;;;;;;;1.20;1.10;;;4.50;69.60;;;;;;5073897;28;20507;-44
2022/03/23 03:58:01;;;;;;;1.53;1.40;;;4.50;68.50;;;;;;5073333;28;20464;-46
2022/03/23 04:00:29;;;;;;;3.27;2.10;;;4.30;69.40;;;;;;5073519;28;20495;-44
2022/03/23 04:02:56;;;;;;;4.80;1.87;;;4.30;69.90;;;;;;5074043;28;20447;-45
2022/03/23 04:05:24;;;;;;;1.80;1.30;;;4.40;70.20;;;;;;5073772;28;20527;-44
2022/03/23 04:07:51;;;;;;;1.67;1.57;;;4.40;70.10;;;;;;5073731;28;20960;-44
2022/03/23 04:10:18;;;;;;;1.30;1.17;;;4.60;67.30;;;;;;5072972;28;20573;-49
2022/03/23 04:12:45;;;;;;;1.10;1.00;;;4.70;66.70;;;;;;5073794;28;20472;-44
2022/03/23 04:15:12;;;;;;;1.40;1.30;;;4.80;66.50;;;;;;5073401;28;20980;-44
2022/03/23 04:17:40;;;;;;;1.53;1.20;;;4.80;66.90;;;;;;5073692;28;20536;-44
2022/03/23 04:20:08;;;;;;;1.17;1.10;;;4.80;67.40;;;;;;5073106;28;20462;-49
2022/03/23 04:22:38;;;;;;;1.47;1.17;;;4.60;68.00;;;;;;5073282;28;20450;-48
2022/03/23 04:25:07;;;;;;;1.17;1.00;;;4.60;67.30;;;;;;5073453;28;20448;-47
2022/03/23 04:27:35;;;;;;;1.10;0.97;;;4.70;68.60;;;;;;5073476;28;20477;-44
2022/03/23 04:30:02;;;;;;;3.47;0.90;;;4.60;68.90;;;;;;5072864;28;20491;-44
2022/03/23 04:32:29;;;;;;;1.03;0.93;;;4.80;69.40;;;;;;5073358;28;20451;-44
2022/03/23 04:34:56;;;;;;;1.27;0.83;;;4.80;68.70;;;;;;5073103;28;20475;-48
2022/03/23 04:37:23;;;;;;;1.17;1.03;;;4.60;68.50;;;;;;5072692;28;20474;-44
2022/03/23 04:39:51;;;;;;;1.20;1.10;;;4.60;68.70;;;;;;5072822;28;20541;-49
2022/03/23 04:42:18;;;;;;;6.30;2.87;;;4.40;68.90;;;;;;5073180;28;20480;-49
2022/03/23 04:44:45;;;;;;;2.13;1.60;;;4.20;70.20;;;;;;5073227;28;20465;-44
2022/03/23 04:47:12;;;;;;;2.30;1.70;;;4.10;70.90;;;;;;5072928;28;20519;-44
2022/03/23 04:49:39;;;;;;;1.67;1.57;;;4.10;71.80;;;;;;5072423;28;21020;-46
2022/03/23 04:52:06;;;;;;;0.90;0.90;;;4.20;70.80;;;;;;5073131;28;20491;-44
2022/03/23 04:54:33;;;;;;;0.93;0.93;;;4.10;70.90;;;;;;5073201;28;20421;-45
2022/03/23 04:57:01;;;;;;;0.90;0.90;;;4.20;71.20;;;;;;5072481;28;20527;-44
2022/03/23 04:59:28;;;;;;;0.90;0.80;;;4.10;71.50;;;;;;5072056;28;20472;-44
2022/03/23 05:01:55;;;;;;;1.33;1.23;;;4.10;70.20;;;;;;5072658;28;20531;-49
2022/03/23 05:04:22;;;;;;;3.33;1.77;;;3.80;69.60;;;;;;5072398;28;20478;-45
2022/03/23 05:06:49;;;;;;;2.07;1.87;;;3.70;70.20;;;;;;5072594;28;20483;-44
2022/03/23 05:09:16;;;;;;;1.57;1.47;;;3.80;71.90;;;;;;5071434;28;20476;-44
2022/03/23 05:11:43;;;;;;;1.87;1.77;;;3.80;72.30;;;;;;5072484;28;20894;-44
2022/03/23 05:14:11;;;;;;;1.77;1.33;;;3.70;72.70;;;;;;5072492;28;20468;-49
2022/03/23 05:16:39;;;;;;;1.70;1.50;;;3.90;72.80;;;;;;5072391;28;20483;-48
2022/03/23 05:19:06;;;;;;;3.60;2.20;;;4.20;72.50;;;;;;5072199;28;20994;-44
2022/03/23 05:21:34;;;;;;;2.20;2.10;;;4.30;71.50;;;;;;5072273;28;20465;-46
2022/03/23 05:24:01;;;;;;;119.47;106.70;;;4.40;70.50;;;;;;5072196;28;20937;-45
2022/03/23 05:26:28;;;;;;;5.00;4.60;;;4.50;70.60;;;;;;5072248;28;20480;-44
2022/03/23 05:28:55;;;;;;;32.20;29.43;;;4.40;68.30;;;;;;5072029;28;20508;-45
2022/03/23 05:31:23;;;;;;;14.97;13.90;;;4.60;69.90;;;;;;5072060;28;20532;-45
2022/03/23 05:33:50;;;;;;;17.50;16.40;;;4.50;69.10;;;;;;5071943;28;20483;-44
2022/03/23 05:36:17;;;;;;;6.17;5.77;;;4.30;69.70;;;;;;5071888;28;20905;-44
2022/03/23 05:38:44;;;;;;;8.37;7.87;;;3.90;69.90;;;;;;5071515;28;20445;-52
2022/03/23 05:41:10;;;;;;;4.47;4.10;;;4.00;71.90;;;;;;5071877;28;20968;-44
2022/03/23 05:43:37;;;;;;;3.33;3.13;;;4.00;72.50;;;;;;5071840;28;20875;-44
2022/03/23 05:46:04;;;;;;;3.20;2.90;;;4.00;72.80;;;;;;5072109;28;20476;-44
2022/03/23 05:48:33;;;;;;;2.20;2.10;;;4.10;72.30;;;;;;5071579;28;20483;-44
2022/03/23 05:50:59;;;;;;;1.53;1.40;;;4.20;71.90;;;;;;5071328;28;20492;-44
2022/03/23 05:53:26;;;;;;;1.17;1.07;;;4.10;72.60;;;;;;5071778;28;20941;-48
2022/03/23 05:55:53;;;;;;;1.20;1.10;;;4.00;72.80;;;;;;5071787;28;20476;-43
2022/03/23 05:58:20;;;;;;;1.30;1.20;;;3.90;73.30;;;;;;5070950;28;20487;-43
2022/03/23 06:00:47;;;;;;;1.20;1.10;;;3.90;72.30;;;;;;5071291;28;20495;-46
2022/03/23 06:03:14;;;;;;;1.50;1.40;;;3.90;73.40;;;;;;5071457;28;20987;-45
2022/03/23 06:05:42;;;;;;;1.37;1.27;;;3.90;73.50;;;;;;5071399;28;20464;-44
2022/03/23 06:08:09;;;;;;;1.60;1.20;;;4.10;73.60;;;;;;5071659;28;20471;-49
2022/03/23 06:10:36;;;;;;;1.23;0.97;;;4.00;73.60;;;;;;5071071;28;20559;-45
2022/03/23 06:13:04;;;;;;;1.00;0.90;;;3.80;74.00;;;;;;5071494;28;20801;-49
2022/03/23 06:15:31;;;;;;;1.20;1.03;;;3.70;75.70;;;;;;5071656;28;20451;-44
2022/03/23 06:17:58;;;;;;;1.20;1.10;;;3.60;76.30;;;;;;5071444;28;20702;-49
2022/03/23 06:20:24;;;;;;;1.40;1.30;;;3.50;75.20;;;;;;5071053;28;20492;-45
2022/03/23 06:22:53;;;;;;;1.57;1.20;;;3.60;75.50;;;;;;5071569;28;20453;-45
2022/03/23 06:25:20;;;;;;;1.53;1.27;;;3.70;74.80;;;;;;5070860;28;20528;-44
2022/03/23 06:27:47;;;;;;;1.53;1.40;;;3.80;73.90;;;;;;5071557;28;20472;-45
2022/03/23 06:30:14;;;;;;;1.53;1.10;;;4.00;74.00;;;;;;5071211;28;20559;-45
2022/03/23 06:32:41;;;;;;;1.17;1.07;;;4.10;73.30;;;;;;5071192;28;20471;-51
2022/03/23 06:35:08;;;;;;;2.53;2.17;;;4.20;73.30;;;;;;5071379;28;20536;-45
2022/03/23 06:37:35;;;;;;;1.97;1.87;;;4.40;72.20;;;;;;5070783;28;20531;-49
2022/03/23 06:40:05;;;;;;;1.60;1.50;;;4.50;71.60;;;;;;5071221;28;20481;-45
2022/03/23 06:42:33;;;;;;;1.77;1.33;;;4.60;71.80;;;;;;5071016;28;20970;-45
2022/03/23 06:45:01;;;;;;;1.30;1.20;;;4.50;71.70;;;;;;5070967;28;20483;-48
2022/03/23 06:47:28;;;;;;;5.13;3.60;;;4.50;72.40;;;;;;5070921;28;20440;-47
2022/03/23 06:49:55;;;;;;;6.87;5.37;;;4.50;72.70;;;;;;5070711;28;20571;-45
2022/03/23 06:52:22;;;;;;;5.80;4.70;;;4.50;73.00;;;;;;5071024;28;20487;-45
2022/03/23 06:54:49;;;;;;;2.97;2.70;;;4.60;73.80;;;;;;5071337;28;20513;-45
2022/03/23 06:57:18;;;;;;;3.40;3.10;;;4.50;74.40;;;;;;5070662;28;20448;-45
2022/03/23 06:59:45;;;;;;;1.33;1.23;;;4.40;74.00;;;;;;5070791;28;20899;-48
2022/03/23 07:02:11;;;;;;;8.87;6.40;;;4.30;72.80;;;;;;5070944;28;20523;-45
2022/03/23 07:04:38;;;;;;;2.70;1.70;;;4.10;73.10;;;;;;5070760;28;20869;-44
2022/03/23 07:07:05;;;;;;;1.93;1.43;;;4.00;73.90;;;;;;5070875;28;20472;-46
2022/03/23 07:09:31;;;;;;;5.97;1.57;;;4.00;75.80;;;;;;5070411;28;20567;-44
2022/03/23 07:11:58;;;;;;;2.60;2.03;;;4.10;76.40;;;;;;5127472;22;20484;-44
2022/03/23 07:14:27;;;;;;;4.57;2.33;;;4.10;75.00;;;;;;5070761;28;20447;-46
2022/03/23 07:16:54;;;;;;;2.97;2.33;;;4.10;75.70;;;;;;5070970;28;20463;-44
2022/03/23 07:19:22;;;;;;;5.73;2.00;;;4.30;75.50;;;;;;5070748;28;20475;-44
2022/03/23 07:21:49;;;;;;;4.90;2.00;;;4.50;75.60;;;;;;5070832;28;20464;-44
2022/03/23 07:24:16;;;;;;;2.00;1.30;;;4.50;76.10;;;;;;5070938;28;20611;-46
2022/03/23 07:26:43;;;;;;;3.27;2.97;;;4.60;76.00;;;;;;5070786;28;20444;-44
2022/03/23 07:29:10;;;;;;;4.27;3.83;;;4.70;75.80;;;;;;5070555;28;20491;-46
2022/03/23 07:31:39;;;;;;;7.43;5.60;;;4.50;76.80;;;;;;5068315;28;20542;-43
2022/03/23 07:34:06;;;;;;;4.13;3.43;;;4.20;77.50;;;;;;5073687;28;20468;-43
2022/03/23 07:36:32;;;;;;;7.00;4.50;;;3.80;77.50;;;;;;5073089;28;20702;-44
2022/03/23 07:38:59;;;;;;;8.50;5.77;;;3.30;77.10;;;;;;5074106;28;20486;-41
2022/03/23 07:41:26;;;;;;;4.20;3.50;;;2.80;77.90;;;;;;5073630;28;20999;-44
2022/03/23 07:43:53;;;;;;;3.03;2.73;;;2.50;78.60;;;;;;5074259;28;20522;-44
2022/03/23 07:46:20;;;;;;;6.17;3.60;;;2.60;78.70;;;;;;5074165;28;20485;-45
2022/03/23 07:48:48;;;;;;;3.80;3.17;;;2.80;78.50;;;;;;5074008;28;20486;-44
2022/03/23 07:51:15;;;;;;;3.07;2.77;;;3.10;77.90;;;;;;5073556;28;20570;-44
2022/03/23 07:53:42;;;;;;;7.40;3.07;;;3.40;78.00;;;;;;5073642;28;20922;-44
2022/03/23 07:56:09;;;;;;;4.47;2.60;;;3.70;76.00;;;;;;5074168;28;20476;-46
2022/03/23 07:58:36;;;;;;;4.27;2.67;;;3.90;75.20;;;;;;5073415;28;20997;-45
2022/03/23 08:01:03;;;;;;;3.80;2.73;;;4.10;74.70;;;;;;5073571;28;20491;-44
2022/03/23 08:03:30;;;;;;;4.90;2.20;;;4.30;73.50;;;;;;5073642;28;21003;-44
2022/03/23 08:05:58;;;;;;;2.63;2.43;;;4.50;72.90;;;;;;5073627;28;20486;-45
2022/03/23 08:08:25;;;;;;;2.70;2.30;;;4.70;72.60;;;;;;5073894;28;20475;-44
2022/03/23 08:10:52;;;;;;;3.13;2.47;;;4.90;72.20;;;;;;5073361;28;20561;-44
2022/03/23 08:13:19;;;;;;;2.03;1.87;;;5.20;72.00;;;;;;5073347;28;20430;-46
2022/03/23 08:15:46;;;;;;;2.17;2.07;;;5.40;70.10;;;;;;5073403;28;20968;-44
2022/03/23 08:18:15;;;;;;;2.03;1.87;;;5.50;70.30;;;;;;5073781;28;20851;-45
2022/03/23 08:20:42;;;;;;;1.83;1.60;;;5.60;67.20;;;;;;5073400;28;20840;-45
2022/03/23 08:23:12;;;;;;;1.60;1.50;;;5.70;67.70;;;;;;5073081;28;20479;-44
2022/03/23 08:25:41;;;;;;;2.30;2.10;;;5.90;68.10;;;;;;5073199;28;20940;-44
2022/03/23 08:28:09;;;;;;;2.00;1.77;;;6.00;67.20;;;;;;5073503;28;20440;-44
2022/03/23 08:30:36;;;;;;;4.17;2.00;;;6.20;66.20;;;;;;5072998;28;20512;-44
2022/03/23 08:33:03;;;;;;;2.17;1.57;;;6.30;66.80;;;;;;5073178;28;20783;-44
2022/03/23 08:35:30;;;;;;;2.37;2.00;;;6.50;67.30;;;;;;5073288;28;20476;-44
2022/03/23 08:37:58;;;;;;;3.60;2.00;;;6.60;67.80;;;;;;5073051;28;20469;-44
2022/03/23 08:40:26;;;;;;;2.00;1.80;;;6.80;67.00;;;;;;5073043;28;20893;-45
2022/03/23 08:42:55;;;;;;;2.13;1.90;;;6.90;67.60;;;;;;5073139;28;20527;-47
2022/03/23 08:45:22;;;;;;;3.53;2.17;;;7.10;69.20;;;;;;5071564;28;20421;-44
2022/03/23 08:47:49;;;;;;;5.90;5.20;;;7.20;69.10;;;;;;5072850;28;20448;-46
2022/03/23 08:50:17;;;;;;;13.60;9.13;;;7.30;68.80;;;;;;5072539;28;20484;-45
2022/03/23 08:52:44;;;;;;;2.60;2.20;;;7.40;70.00;;;;;;5072842;28;20498;-45
2022/03/23 08:55:14;;;;;;;3.30;2.70;;;7.60;68.00;;;;;;5072817;28;20519;-45
2022/03/23 08:57:43;;;;;;;2.50;2.30;;;7.70;66.40;;;;;;5072441;28;20423;-45
2022/03/23 09:00:11;;;;;;;3.87;2.40;;;7.70;65.00;;;;;;5072199;28;20487;-45
2022/03/23 09:02:39;;;;;;;2.20;2.00;;;7.80;63.50;;;;;;5072735;28;20468;-47
2022/03/23 09:05:09;;;;;;;3.03;2.23;;;7.90;65.70;;;;;;5072608;28;20865;-45
2022/03/23 09:07:37;;;;;;;4.73;2.57;;;8.00;67.60;;;;;;5072494;28;20457;-44
2022/03/23 09:10:05;;;;;;;2.47;2.13;;;8.10;68.00;;;;;;5072048;28;20484;-45
2022/03/23 09:12:32;;;;;;;2.30;1.90;;;8.20;66.90;;;;;;5072432;28;20542;-45
2022/03/23 09:15:00;;;;;;;2.30;1.80;;;8.40;66.30;;;;;;5072357;28;20534;-44
2022/03/23 09:17:28;;;;;;;2.07;1.80;;;8.50;66.00;;;;;;5072336;28;20540;-47
2022/03/23 09:19:55;;;;;;;2.00;1.90;;;8.70;64.50;;;;;;5072119;28;21010;-43
2022/03/23 09:22:22;;;;;;;2.00;1.80;;;8.80;64.30;;;;;;5070705;28;20468;-45
2022/03/23 09:24:49;;;;;;;1.80;1.70;;;9.10;63.00;;;;;;5071991;28;20531;-45
2022/03/23 09:27:16;;;;;;;3.20;1.43;;;9.30;62.00;;;;;;5072218;28;20471;-45
2022/03/23 09:29:44;;;;;;;2.10;1.70;;;9.50;59.70;;;;;;5071533;28;20527;-45
2022/03/23 09:32:12;;;;;;;6.53;1.77;;;9.60;60.80;;;;;;5071932;28;20988;-45
2022/03/23 09:34:40;;;;;;;2.27;1.30;;;9.80;59.70;;;;;;5071383;28;20540;-45
2022/03/23 09:39:52;;;;;;;2.63;1.23;;;10.20;57.80;;;;;;5071815;28;20447;-45
2022/03/23 09:42:19;;;;;;;2.23;2.03;;;10.40;55.00;;;;;;5071875;28;20496;-46
2022/03/23 09:44:49;;;;;;;2.77;1.30;;;10.50;55.20;;;;;;5071459;28;20531;-45
2022/03/23 09:47:17;;;;;;;1.63;1.43;;;10.70;55.30;;;;;;5071388;28;20444;-45
2022/03/23 09:49:44;;;;;;;3.43;1.80;;;10.70;54.40;;;;;;5070521;28;20531;-47
2022/03/23 09:52:11;;;;;;;2.43;1.60;;;10.80;55.00;;;;;;5069964;28;20468;-48
2022/03/23 09:54:41;;;;;;;5.03;1.70;;;10.80;50.60;;;;;;5071090;28;20440;-47
2022/03/23 09:57:08;;;;;;;2.77;2.57;;;10.90;51.80;;;;;;5070932;28;20452;-45
2022/03/23 09:59:35;;;;;;;2.57;1.20;;;11.00;51.50;;;;;;5071301;28;20476;-45
2022/03/23 10:02:35;;;;;;;2.17;1.37;;;11.10;49.80;;;;;;5071348;28;20548;-45
2022/03/23 10:05:44;;;;;;;3.53;2.13;;;11.30;52.00;;;;;;5071734;28;20468;-45
2022/03/23 10:09:01;;;;;;;3.60;1.30;;;11.50;52.30;;;;;;5071724;28;20441;-45
2022/03/23 10:12:04;;;;;;;2.33;1.40;;;11.80;53.10;;;;;;5030594;28;20898;-45
2022/03/23 10:15:20;;;;;;;4.10;1.83;;;12.00;54.00;;;;;;5071769;28;20475;-46
2022/03/23 10:18:02;;;;;;;2.17;1.63;;;12.10;52.90;;;;;;5071590;28;20527;-45
2022/03/23 10:20:29;;;;;;;2.40;2.07;;;12.20;52.00;;;;;;5070918;28;20496;-45
2022/03/23 10:22:56;;;;;;;2.73;1.80;;;12.40;54.10;;;;;;5071507;28;20487;-45
2022/03/23 10:25:27;;;;;;;3.20;1.70;;;12.60;52.30;;;;;;5071699;28;20538;-45
2022/03/23 10:27:55;;;;;;;2.27;1.90;;;12.70;52.10;;;;;;5071524;28;20448;-44
2022/03/23 10:30:33;;;;;;;2.77;2.00;;;12.80;50.90;;;;;;5070807;28;20483;-47
2022/03/23 10:33:00;;;;;;;1.60;1.50;;;12.50;52.10;;;;;;5071071;28;20451;-48
2022/03/23 10:35:36;;;;;;;1.67;1.40;;;12.50;50.90;;;;;;5071375;28;20523;-46
2022/03/23 10:38:11;;;;;;;1.73;1.50;;;12.60;51.20;;;;;;5070946;28;20527;-45
2022/03/23 10:40:41;;;;;;;2.07;1.87;;;12.70;50.60;;;;;;5070928;28;20498;-45
2022/03/23 10:43:09;;;;;;;1.87;1.77;;;12.80;51.40;;;;;;5071090;28;20444;-46
2022/03/23 10:45:36;;;;;;;5.30;2.00;;;13.10;52.00;;;;;;5070782;28;20524;-45
2022/03/23 10:48:11;;;;;;;2.90;1.87;;;13.40;53.10;;;;;;5070840;28;20936;-45
2022/03/23 10:50:49;;;;;;;2.20;2.00;;;13.40;51.00;;;;;;5070914;28;20479;-46
2022/03/23 10:53:17;;;;;;;1.77;1.60;;;13.30;51.90;;;;;;5070854;28;20527;-47
2022/03/23 10:55:49;;;;;;;3.90;1.97;;;13.40;54.30;;;;;;5070611;28;20471;-47
2022/03/23 10:58:22;;;;;;;1.93;1.60;;;13.60;53.00;;;;;;5070344;28;20516;-48
2022/03/23 11:00:49;;;;;;;3.43;1.90;;;13.70;52.20;;;;;;5070794;28;20496;-45
2022/03/23 11:03:17;;;;;;;2.70;2.07;;;13.90;51.20;;;;;;5070291;28;20479;-47
2022/03/23 11:05:46;;;;;;;2.17;1.97;;;13.80;50.20;;;;;;5070767;28;20480;-45
2022/03/23 11:08:14;;;;;;;2.20;1.57;;;13.80;51.80;;;;;;5072634;28;20483;-48
2022/03/23 11:16:22;;;;;;;1.97;1.70;;;14.20;50.10;;;;;;5074821;28;20474;-46
2022/03/23 11:18:49;;;;;;;1.97;1.80;;;14.10;49.60;;;;;;5074974;28;20452;-45
2022/03/23 11:21:16;;;;;;;2.40;1.60;;;14.00;48.50;;;;;;5073936;28;20483;-45
2022/03/23 11:23:44;;;;;;;2.63;2.20;;;14.20;52.10;;;;;;5074750;28;20448;-45
2022/03/23 11:26:12;;;;;;;1.53;1.43;;;14.30;50.20;;;;;;5074526;28;20475;-45
2022/03/23 11:28:42;;;;;;;2.00;1.60;;;14.30;49.80;;;;;;5075803;28;20468;-46
2022/03/23 11:31:11;;;;;;;2.93;2.03;;;14.50;51.90;;;;;;5080629;28;20546;-45
2022/03/23 11:33:39;;;;;;;2.17;1.63;;;14.60;51.00;;;;;;5083282;28;20474;-45
2022/03/23 11:36:09;;;;;;;5.17;1.80;;;14.60;49.00;;;;;;5084894;28;20899;-45
2022/03/23 11:38:38;;;;;;;2.33;1.60;;;14.60;48.20;;;;;;5084035;28;20808;-48
2022/03/23 11:41:05;;;;;;;3.43;2.20;;;14.70;48.90;;;;;;5082661;28;20472;-49
2022/03/23 11:43:34;;;;;;;2.07;1.97;;;14.80;49.80;;;;;;5083910;28;20482;-46
2022/03/23 11:46:04;;;;;;;2.10;1.90;;;14.80;49.50;;;;;;5084744;28;20436;-45
2022/03/23 11:48:52;;;;;;;1.70;1.60;;;15.00;50.50;;;;;;5081078;28;20494;-45
2022/03/23 11:51:54;;;;;;;2.37;1.50;;;15.20;48.30;;;;;;5077651;28;20631;-45
2022/03/23 11:55:36;;;;;;;1.30;1.20;;;15.40;45.60;;;;;;5052620;28;20850;-49
2022/03/23 11:57:17;;;;;;;1.67;1.30;;;15.60;44.50;;;;;;5073224;28;20463;-47
2022/03/23 11:59:45;;;;;;;2.00;1.57;;;15.70;45.10;;;;;;5073927;28;20483;-48
2022/03/23 12:02:16;;;;;;;1.80;1.40;;;15.70;45.60;;;;;;5073661;28;20456;-46
2022/03/23 12:04:43;;;;;;;1.93;1.37;;;15.70;45.30;;;;;;5073727;28;20444;-45
2022/03/23 12:07:12;;;;;;;2.80;1.77;;;15.70;44.30;;;;;;5073852;28;20479;-48
2022/03/23 12:09:40;;;;;;;1.77;1.33;;;15.70;45.40;;;;;;5072662;28;20787;-47
2022/03/23 12:12:13;;;;;;;1.63;1.37;;;15.80;42.80;;;;;;5071771;28;20487;-49
2022/03/23 12:14:40;;;;;;;2.20;1.23;;;15.80;42.90;;;;;;5072566;28;20480;-45
2022/03/23 12:17:20;;;;;;;1.23;1.13;;;15.80;41.90;;;;;;5072674;28;20476;-45
2022/03/23 12:19:58;;;;;;;2.20;1.30;;;15.80;40.80;;;;;;5073129;28;20444;-48
2022/03/23 12:23:01;;;;;;;1.50;1.30;;;15.80;43.70;;;;;;5073581;28;20559;-48
2022/03/23 12:25:35;;;;;;;1.30;1.03;;;15.90;41.50;;;;;;5073355;28;20468;-46
2022/03/23 12:28:18;;;;;;;2.30;1.40;;;16.10;41.40;;;;;;5073492;28;20470;-46
2022/03/23 12:31:09;;;;;;;1.63;1.40;;;16.20;40.50;;;;;;5072928;28;20456;-46
2022/03/23 12:34:04;;;;;;;2.17;1.70;;;16.40;42.60;;;;;;5072930;28;20791;-45
2022/03/23 12:39:25;;;;;;;2.53;1.90;;;16.30;41.20;;;;;;5072591;28;20435;-45
2022/03/23 12:41:52;;;;;;;1.57;1.40;;;16.30;43.00;;;;;;5073126;28;20491;-45
2022/03/23 12:44:29;;;;;;;2.50;1.67;;;16.40;43.20;;;;;;5073072;28;20783;-45
2022/03/23 12:46:56;;;;;;;1.47;1.10;;;16.50;43.80;;;;;;5072815;28;20444;-45
2022/03/23 12:58:06;;;;;;;2.00;1.30;;;17.10;41.80;;;;;;5072804;28;20428;-48
2022/03/23 13:00:37;;;;;;;1.63;1.53;;;17.20;40.60;;;;;;5072458;28;20492;-45
2022/03/23 13:03:47;;;;;;;1.43;1.13;;;17.20;38.70;;;;;;5072954;28;20585;-47
2022/03/23 13:06:16;;;;;;;2.90;1.77;;;17.30;36.70;;;;;;5072843;28;20441;-46
2022/03/23 13:08:47;;;;;;;1.50;1.20;;;17.20;37.40;;;;;;5072896;28;20815;-46
2022/03/23 13:11:16;;;;;;;2.10;1.90;;;17.30;39.40;;;;;;5094881;23;20486;-44
2022/03/23 13:13:50;;;;;;;1.57;1.33;;;17.30;38.30;;;;;;5072081;28;20437;-44
2022/03/23 13:16:18;;;;;;;1.60;1.43;;;17.20;41.20;;;;;;5071911;28;20945;-44
2022/03/23 13:18:45;;;;;;;2.47;1.70;;;17.30;40.00;;;;;;5071597;28;20471;-46
2022/03/23 13:21:20;;;;;;;3.20;2.17;;;17.40;41.00;;;;;;5072017;28;20906;-44
2022/03/23 13:23:49;;;;;;;3.20;2.07;;;17.30;41.10;;;;;;5072188;28;20458;-47
2022/03/23 13:26:19;;;;;;;4.97;2.33;;;17.30;41.50;;;;;;5072305;28;20532;-44
2022/03/23 13:28:48;;;;;;;3.73;1.90;;;17.40;41.60;;;;;;5072041;28;20498;-48
2022/03/23 13:31:16;;;;;;;18.33;11.40;;;17.50;40.40;;;;;;5071061;28;20484;-44
2022/03/23 13:33:45;;;;;;;6.43;2.67;;;17.50;39.20;;;;;;5071947;28;20444;-44